createdAt,value
2019-01-18T00:04:22.317Z,97935.56
2019-01-18T00:10:52.179Z,97939.52
2019-01-18T00:17:21.835Z,97951.64
2019-01-18T00:23:53.836Z,97958.23
2019-01-18T00:30:35.902Z,97960.94
2019-01-18T00:40:41.898Z,97979.26
2019-01-18T00:47:12.637Z,97978.52
2019-01-18T00:53:37.582Z,97987.34
2019-01-18T01:00:24.610Z,97979.06
2019-01-18T01:06:53.460Z,97995.74
2019-01-18T01:13:19.285Z,97999.49
2019-01-18T01:20:04.078Z,98010.74
2019-01-18T01:26:35.159Z,98008.83
2019-01-18T01:33:00.981Z,98018.28
2019-01-18T01:42:41.513Z,98044.34
2019-01-18T01:49:15.631Z,98047.46
2019-01-18T01:55:55.592Z,98054.45
2019-01-18T02:02:21.180Z,98064.30
2019-01-18T02:08:49.250Z,98073.80
2019-01-18T02:15:37.047Z,98068.80
2019-01-18T02:22:05.763Z,98075.80
2019-01-18T02:28:31.962Z,98084.20
2019-01-18T02:34:57.777Z,98087.41
2019-01-18T02:41:19.559Z,98101.67
2019-01-18T02:47:45.394Z,98101.95
2019-01-18T02:54:11.199Z,98101.41
2019-01-18T03:00:50.150Z,98113.09
2019-01-18T03:07:17.777Z,98112.94
2019-01-18T03:13:47.727Z,98114.50
2019-01-18T03:20:14.684Z,98110.44
2019-01-18T03:26:55.650Z,98121.30
2019-01-18T03:33:23.290Z,98122.87
2019-01-18T03:39:49.959Z,98124.90
2019-01-18T03:46:17.037Z,98117.03
2019-01-18T03:52:45.755Z,98121.58
2019-01-18T03:59:11.604Z,98130.05
2019-01-18T04:05:35.406Z,98149.77
2019-01-18T04:12:17.228Z,98158.81
2019-01-18T04:18:45.132Z,98180.14
2019-01-18T04:25:16.374Z,98183.16
2019-01-18T04:31:54.850Z,98187.74
2019-01-18T04:38:21.939Z,98188.73
2019-01-18T04:44:11.328Z,98204.92
2019-01-18T04:50:30.211Z,98205.45
2019-01-18T04:57:10.001Z,98215.31
2019-01-18T05:03:42.804Z,98225.87
2019-01-18T05:10:13.566Z,98232.20
2019-01-18T05:16:51.711Z,98244.20
2019-01-18T05:23:19.601Z,98249.36
2019-01-18T05:29:43.401Z,98251.25
2019-01-18T05:36:10.431Z,98251.29
2019-01-18T05:42:53.419Z,98261.48
2019-01-18T05:49:07.915Z,98271.53
2019-01-18T05:55:34.587Z,98270.21
2019-01-18T06:02:13.911Z,98273.03
2019-01-18T06:08:39.731Z,98275.72
2019-01-18T06:15:04.429Z,98278.91
2019-01-18T06:21:42.482Z,98278.91
2019-01-18T06:28:08.300Z,98285.84
2019-01-18T06:34:34.121Z,98282.15
2019-01-18T06:41:12.060Z,98296.91
2019-01-18T06:50:38.475Z,98320.91
2019-01-18T06:57:15.387Z,98328.98
2019-01-18T07:03:42.052Z,98351.55
2019-01-18T07:10:08.249Z,98361.27
2019-01-18T07:16:38.112Z,98377.52
2019-01-18T07:23:15.043Z,98391.56
2019-01-18T07:29:40.859Z,98400.31
2019-01-18T07:36:07.803Z,98401.57
2019-01-18T07:42:47.651Z,98396.69
2019-01-18T07:53:01.730Z,98395.84
2019-01-18T07:59:31.003Z,98415.02
2019-01-18T08:05:58.076Z,98437.34
2019-01-18T08:12:36.360Z,98444.83
2019-01-18T08:19:03.189Z,98458.28
2019-01-18T08:25:32.827Z,98456.56
2019-01-18T08:31:59.500Z,98455.64
2019-01-18T08:38:38.454Z,98467.34
2019-01-18T08:44:29.300Z,98485.38
2019-01-18T08:54:30.249Z,98492.19
2019-01-18T09:00:56.071Z,98499.45
2019-01-18T09:07:23.931Z,98501.44
2019-01-18T09:14:07.942Z,98506.81
2019-01-18T09:20:35.767Z,98504.70
2019-01-18T09:26:59.570Z,98501.16
2019-01-18T09:33:43.164Z,98503.36
2019-01-18T09:40:13.437Z,98513.81
2019-01-18T09:46:41.823Z,98520.16
2019-01-18T09:56:13.941Z,98529.63
2019-01-18T10:02:39.761Z,98537.83
2019-01-18T10:09:18.711Z,98546.61
2019-01-18T10:15:49.207Z,98538.87
2019-01-18T10:22:15.399Z,98549.13
2019-01-18T10:28:54.350Z,98546.09
2019-01-18T10:35:22.747Z,98532.11
2019-01-18T10:41:47.762Z,98525.66
2019-01-18T10:48:17.869Z,98521.57
2019-01-18T10:58:21.848Z,98532.22
2019-01-18T11:05:00.797Z,98533.61
2019-01-18T11:11:28.641Z,98520.61
2019-01-18T11:17:56.480Z,98520.72
2019-01-18T11:24:35.178Z,98529.39
2019-01-18T11:31:03.078Z,98508.18
2019-01-18T11:37:26.878Z,98507.79
2019-01-18T11:44:06.655Z,98498.51
2019-01-18T11:50:32.504Z,98489.33
2019-01-18T12:00:37.926Z,98484.37
2019-01-18T12:07:01.295Z,98471.06
2019-01-18T12:13:31.511Z,98470.45
2019-01-18T12:20:10.200Z,98463.47
2019-01-18T12:26:38.105Z,98460.94
2019-01-18T12:33:06.815Z,98458.39
2019-01-18T12:39:44.079Z,98455.17
2019-01-18T12:46:11.911Z,98460.94
2019-01-18T12:52:39.517Z,98461.58
2019-01-18T13:02:40.701Z,98464.20
2019-01-18T13:09:07.489Z,98461.70
2019-01-18T13:16:15.529Z,98448.78
2019-01-18T13:22:41.378Z,98454.94
2019-01-18T13:29:08.417Z,98444.38
2019-01-18T13:35:11.776Z,98443.25
2019-01-18T13:41:37.844Z,98447.64
2019-01-18T13:48:04.295Z,98447.42
2019-01-18T13:54:30.490Z,98438.80
2019-01-18T14:03:58.265Z,98449.23
2019-01-18T14:10:38.866Z,98444.41
2019-01-18T14:17:05.534Z,98449.94
2019-01-18T14:23:35.770Z,98452.72
2019-01-18T14:30:02.609Z,98453.47
2019-01-18T14:36:04.179Z,98452.64
2019-01-18T14:42:30.006Z,98451.97
2019-01-18T14:48:55.533Z,98453.42
2019-01-18T14:55:21.382Z,98445.78
2019-01-18T15:05:39.487Z,98453.81
2019-01-18T15:12:07.376Z,98455.38
2019-01-18T15:18:36.094Z,98459.11
2019-01-18T15:25:02.268Z,98464.00
2019-01-18T15:31:39.203Z,98464.84
2019-01-18T15:38:09.062Z,98470.01
2019-01-18T15:44:34.647Z,98466.22
2019-01-18T15:51:15.651Z,98468.22
2019-01-18T15:57:42.321Z,98472.62
2019-01-18T16:07:44.642Z,98455.50
2019-01-18T16:14:11.470Z,98452.63
2019-01-18T16:20:37.291Z,98455.81
2019-01-18T16:27:20.282Z,98453.70
2019-01-18T16:33:47.923Z,98463.41
2019-01-18T16:40:37.176Z,98460.38
2019-01-18T16:47:15.112Z,98463.88
2019-01-18T16:53:42.954Z,98457.28
2019-01-18T17:00:14.831Z,98453.34
2019-01-18T17:09:44.472Z,98450.23
2019-01-18T17:16:12.313Z,98445.22
2019-01-18T17:22:53.310Z,98445.03
2019-01-18T17:29:22.933Z,98443.30
2019-01-18T17:36:16.731Z,98440.47
2019-01-18T17:43:34.509Z,98444.36
2019-01-18T17:51:09.299Z,98441.33
2019-01-18T17:58:30.320Z,98446.23
2019-01-18T18:06:16.165Z,98442.47
2019-01-18T18:13:10.778Z,98443.21
2019-01-18T18:20:36.219Z,98440.27
2019-01-18T18:31:46.206Z,98445.47
2019-01-18T18:38:54.376Z,98441.73
2019-01-18T18:46:35.597Z,98433.64
2019-01-18T18:54:07.489Z,98435.41
2019-01-18T19:01:26.500Z,98434.48
2019-01-18T19:08:17.775Z,98422.31
2019-01-18T19:16:06.323Z,98422.66
2019-01-18T19:23:24.603Z,98415.64
2019-01-18T19:30:27.725Z,98410.15
2019-01-18T19:37:58.539Z,98401.97
2019-01-18T19:45:05.513Z,98417.77
2019-01-18T19:52:28.144Z,98414.48
2019-01-18T19:59:35.124Z,98409.94
2019-01-18T20:07:14.690Z,98411.22
2019-01-18T20:14:00.609Z,98419.41
2019-01-18T20:20:57.083Z,98427.70
2019-01-18T20:28:28.531Z,98425.70
2019-01-18T20:35:49.374Z,98428.37
2019-01-18T20:43:07.238Z,98427.19
2019-01-18T20:50:22.177Z,98423.92
2019-01-18T20:57:35.829Z,98422.05
2019-01-18T21:04:53.157Z,98423.80
2019-01-18T21:15:39.360Z,98429.50
2019-01-18T21:23:04.969Z,98423.17
2019-01-18T21:30:56.650Z,98426.92
2019-01-18T21:38:17.630Z,98423.16
2019-01-18T21:46:11.202Z,98420.78
2019-01-18T21:53:02.770Z,98414.59
2019-01-18T22:00:29.190Z,98413.89
2019-01-18T22:07:29.129Z,98412.61
2019-01-18T22:19:00.927Z,98411.97
2019-01-18T22:26:46.659Z,98413.02
2019-01-18T22:33:51.820Z,98424.45
2019-01-18T22:41:37.133Z,98424.07
2019-01-18T22:48:44.357Z,98435.86
2019-01-18T22:55:53.102Z,98433.37
2019-01-18T23:03:21.539Z,98430.90
2019-01-18T23:11:03.112Z,98431.24
2019-01-18T23:21:41.115Z,98430.16
2019-01-18T23:29:03.812Z,98426.96
2019-01-18T23:36:07.849Z,98427.78
2019-01-18T23:47:35.899Z,98425.97
2019-01-18T23:54:50.986Z,98425.61
